createdAt,value
2023-01-13T00:01:34.103Z,9.90
2023-01-13T00:04:02.529Z,13.73
2023-01-13T00:06:30.980Z,9.93
2023-01-13T00:08:59.425Z,11.80
2023-01-13T00:11:27.993Z,11.20
2023-01-13T00:13:57.177Z,10.13
2023-01-13T00:16:25.614Z,12.27
2023-01-13T00:18:55.439Z,9.17
2023-01-13T00:21:25.853Z,11.80
2023-01-13T00:23:55.516Z,8.83
2023-01-13T00:26:27.289Z,10.67
2023-01-13T00:28:58.945Z,10.40
2023-01-13T00:31:28.319Z,10.50
2023-01-13T00:34:00.443Z,11.03
2023-01-13T00:36:29.477Z,11.47
2023-01-13T00:38:58.052Z,12.17
2023-01-13T00:41:27.963Z,9.77
2023-01-13T00:43:55.404Z,9.60
2023-01-13T00:46:24.009Z,9.37
2023-01-13T00:48:52.960Z,9.17
2023-01-13T00:51:23.120Z,7.73
2023-01-13T00:53:52.978Z,11.13
2023-01-13T00:56:39.125Z,8.90
2023-01-13T00:59:11.063Z,11.30
2023-01-13T01:01:39.731Z,11.83
2023-01-13T01:04:08.535Z,10.20
2023-01-13T01:06:38.800Z,11.40
2023-01-13T01:09:07.650Z,9.40
2023-01-13T01:11:36.588Z,9.40
2023-01-13T01:14:06.962Z,7.43
2023-01-13T01:16:35.952Z,12.43
2023-01-13T01:19:05.209Z,11.73
2023-01-13T01:21:34.213Z,13.60
2023-01-13T01:24:05.538Z,9.80
2023-01-13T01:26:34.248Z,8.53
2023-01-13T01:29:03.242Z,10.73
2023-01-13T01:31:33.808Z,10.93
2023-01-13T01:34:03.114Z,9.03
2023-01-13T01:36:31.842Z,11.17
2023-01-13T01:39:00.956Z,9.30
2023-01-13T01:41:33.379Z,11.87
2023-01-13T01:44:07.234Z,11.87
2023-01-13T01:46:38.872Z,10.97
2023-01-13T01:49:15.141Z,12.23
2023-01-13T01:51:51.396Z,9.10
2023-01-13T01:54:25.611Z,12.70
2023-01-13T01:56:56.122Z,12.93
2023-01-13T01:59:26.822Z,12.17
2023-01-13T02:01:55.520Z,8.50
2023-01-13T02:04:31.028Z,10.67
2023-01-13T02:07:00.035Z,8.30
2023-01-13T02:09:29.056Z,9.20
2023-01-13T02:12:18.131Z,8.33
2023-01-13T02:14:46.917Z,8.83
2023-01-13T02:17:34.019Z,11.33
2023-01-13T02:20:46.213Z,10.53
2023-01-13T02:24:13.505Z,11.70
2023-01-13T02:27:18.498Z,9.70
2023-01-13T02:30:27.130Z,10.03
2023-01-13T02:33:12.108Z,7.23
2023-01-13T02:35:51.891Z,8.40
2023-01-13T02:38:27.929Z,9.20
2023-01-13T02:41:21.303Z,9.83
2023-01-13T02:44:09.111Z,11.63
2023-01-13T02:46:59.162Z,9.33
2023-01-13T02:49:37.790Z,9.80
2023-01-13T02:52:13.458Z,10.10
2023-01-13T02:54:46.580Z,9.00
2023-01-13T02:57:18.721Z,14.07
2023-01-13T02:59:47.647Z,9.97
2023-01-13T03:02:21.383Z,12.53
2023-01-13T03:04:54.724Z,7.97
2023-01-13T03:07:57.086Z,8.43
2023-01-13T03:10:52.486Z,7.20
2023-01-13T03:13:55.588Z,12.10
2023-01-13T03:16:35.341Z,8.27
2023-01-13T03:19:29.914Z,10.00
2023-01-13T03:22:06.486Z,9.37
2023-01-13T03:24:40.345Z,7.87
2023-01-13T03:27:19.331Z,8.07
2023-01-13T03:29:51.963Z,11.77
2023-01-13T03:32:27.058Z,8.43
2023-01-13T03:35:04.797Z,9.33
2023-01-13T03:37:37.101Z,8.07
2023-01-13T03:40:12.567Z,10.70
2023-01-13T03:43:05.130Z,9.03
2023-01-13T03:45:35.893Z,9.07
2023-01-13T03:48:10.080Z,7.60
2023-01-13T03:50:46.334Z,8.43
2023-01-13T03:53:20.001Z,7.33
2023-01-13T03:55:53.561Z,9.20
2023-01-13T03:58:25.479Z,10.00
2023-01-13T04:00:58.511Z,9.97
2023-01-13T04:03:34.440Z,8.47
2023-01-13T04:06:14.715Z,9.63
2023-01-13T04:08:51.181Z,8.40
2023-01-13T04:11:27.702Z,8.63
2023-01-13T04:13:57.795Z,11.33
2023-01-13T04:16:26.487Z,9.73
2023-01-13T04:18:54.884Z,9.33
2023-01-13T04:21:25.093Z,8.90
2023-01-13T04:23:54.034Z,8.97
2023-01-13T04:26:23.533Z,7.03
2023-01-13T04:28:54.717Z,8.97
2023-01-13T04:31:23.239Z,8.90
2023-01-13T04:33:51.735Z,14.17
2023-01-13T04:36:25.155Z,8.30
2023-01-13T04:38:55.466Z,9.83
2023-01-13T04:41:24.110Z,10.93
2023-01-13T04:43:52.509Z,8.63
2023-01-13T04:46:20.892Z,7.70
2023-01-13T04:48:49.286Z,8.50
2023-01-13T04:51:18.346Z,7.63
2023-01-13T04:53:46.889Z,7.30
2023-01-13T04:56:16.534Z,9.03
2023-01-13T04:58:44.939Z,11.60
2023-01-13T05:01:13.682Z,10.27
2023-01-13T05:03:42.134Z,7.40
2023-01-13T05:06:10.489Z,9.50
2023-01-13T05:08:38.808Z,9.90
2023-01-13T05:11:27.724Z,11.20
2023-01-13T05:14:15.001Z,6.90
2023-01-13T05:17:01.478Z,6.63
2023-01-13T05:19:31.752Z,9.10
2023-01-13T05:22:18.266Z,8.90
2023-01-13T05:25:04.360Z,7.50
2023-01-13T05:27:33.653Z,9.73
2023-01-13T05:30:03.519Z,8.00
2023-01-13T05:32:31.871Z,7.57
2023-01-13T05:35:00.243Z,8.00
2023-01-13T05:37:29.100Z,7.30
2023-01-13T05:40:14.763Z,8.67
2023-01-13T05:43:00.299Z,7.93
2023-01-13T05:45:31.967Z,7.87
2023-01-13T05:48:00.513Z,9.10
2023-01-13T05:50:28.831Z,8.30
2023-01-13T05:52:57.146Z,8.17
2023-01-13T05:55:25.482Z,9.53
2023-01-13T05:57:53.852Z,9.20
2023-01-13T06:00:22.959Z,12.93
2023-01-13T06:02:53.449Z,8.60
2023-01-13T06:05:21.806Z,8.70
2023-01-13T06:07:50.862Z,7.30
2023-01-13T06:10:19.536Z,7.57
2023-01-13T06:12:47.927Z,10.67
2023-01-13T06:15:16.446Z,7.67
2023-01-13T06:17:44.847Z,8.07
2023-01-13T06:20:15.860Z,10.87
2023-01-13T06:22:47.563Z,8.70
2023-01-13T06:25:26.046Z,8.23
2023-01-13T06:27:55.565Z,11.37
2023-01-13T06:30:24.166Z,10.27
2023-01-13T06:32:55.685Z,8.17
2023-01-13T06:35:30.749Z,8.00
2023-01-13T06:38:02.090Z,7.83
2023-01-13T06:40:30.901Z,11.50
2023-01-13T06:43:18.375Z,7.50
2023-01-13T06:45:51.345Z,7.40
2023-01-13T06:48:23.345Z,8.17
2023-01-13T06:50:53.130Z,7.27
2023-01-13T06:53:21.820Z,7.27
2023-01-13T06:55:50.232Z,8.13
2023-01-13T06:58:18.812Z,7.47
2023-01-13T07:00:51.359Z,8.23
2023-01-13T07:03:21.521Z,7.23
2023-01-13T07:05:56.466Z,8.77
2023-01-13T07:08:25.578Z,8.97
2023-01-13T07:10:54.324Z,9.20
2023-01-13T07:13:40.160Z,7.87
2023-01-13T07:16:10.284Z,7.77
2023-01-13T07:18:39.380Z,6.83
2023-01-13T07:21:12.087Z,8.60
2023-01-13T07:23:42.709Z,7.30
2023-01-13T07:26:12.088Z,7.63
2023-01-13T07:28:41.704Z,6.40
2023-01-13T07:31:17.277Z,6.30
2023-01-13T07:33:46.081Z,5.83
2023-01-13T07:36:19.632Z,8.30
2023-01-13T07:38:48.094Z,4.97
2023-01-13T07:41:34.539Z,4.20
2023-01-13T07:44:06.279Z,7.47
2023-01-13T07:46:35.031Z,7.27
2023-01-13T07:49:03.558Z,8.00
2023-01-13T07:51:36.303Z,6.93
2023-01-13T07:54:04.954Z,7.13
2023-01-13T07:56:33.866Z,4.63
2023-01-13T07:59:02.720Z,6.97
2023-01-13T08:01:31.982Z,7.33
2023-01-13T08:04:00.581Z,5.60
2023-01-13T08:06:29.130Z,4.83
2023-01-13T08:09:00.041Z,7.30
2023-01-13T08:11:28.525Z,5.97
2023-01-13T08:13:59.255Z,7.37
2023-01-13T08:16:27.813Z,8.00
2023-01-13T08:18:59.494Z,7.43
2023-01-13T08:21:27.962Z,6.80
2023-01-13T08:23:56.393Z,5.70
2023-01-13T08:26:26.397Z,9.43
2023-01-13T08:28:54.939Z,8.60
2023-01-13T08:31:23.440Z,6.40
2023-01-13T08:33:51.878Z,7.83
2023-01-13T08:36:20.697Z,9.13
2023-01-13T08:38:49.248Z,7.80
2023-01-13T08:41:39.954Z,5.33
2023-01-13T08:44:10.130Z,4.70
2023-01-13T08:46:38.896Z,6.97
2023-01-13T08:49:07.322Z,6.93
2023-01-13T08:51:35.794Z,6.43
2023-01-13T08:54:04.787Z,4.70
2023-01-13T08:56:35.546Z,7.07
2023-01-13T08:59:04.589Z,6.80
2023-01-13T09:01:34.729Z,6.57
2023-01-13T09:04:03.243Z,6.63
2023-01-13T09:06:32.154Z,5.30
2023-01-13T09:09:02.488Z,7.63
2023-01-13T09:11:52.885Z,8.43
2023-01-13T09:14:22.930Z,6.60
2023-01-13T09:16:52.913Z,7.67
2023-01-13T09:19:21.416Z,5.33
2023-01-13T09:21:49.819Z,5.90
2023-01-13T09:24:18.175Z,8.37
2023-01-13T09:26:47.012Z,5.27
2023-01-13T09:29:15.975Z,6.00
2023-01-13T09:31:45.004Z,6.97
2023-01-13T09:34:35.565Z,7.40
2023-01-13T09:37:04.960Z,5.97
2023-01-13T09:39:34.043Z,7.33
2023-01-13T09:42:30.872Z,5.57
2023-01-13T09:45:05.690Z,6.50
2023-01-13T09:47:41.090Z,7.37
2023-01-13T09:50:26.044Z,7.83
2023-01-13T09:52:54.800Z,6.53
2023-01-13T09:55:31.811Z,8.70
2023-01-13T09:58:02.230Z,7.53
2023-01-13T10:00:40.305Z,6.37
2023-01-13T10:03:24.924Z,5.73
2023-01-13T10:06:16.712Z,7.80
2023-01-13T10:08:46.987Z,6.53
2023-01-13T10:11:35.893Z,5.63
2023-01-13T10:14:14.072Z,9.17
2023-01-13T10:16:52.527Z,4.80
2023-01-13T10:19:27.641Z,6.87
2023-01-13T10:22:31.490Z,6.93
2023-01-13T10:25:25.666Z,4.87
2023-01-13T10:27:57.356Z,4.97
2023-01-13T10:30:31.505Z,5.70
2023-01-13T10:33:03.276Z,6.53
2023-01-13T10:35:54.529Z,6.23
2023-01-13T10:38:28.073Z,4.30
2023-01-13T10:41:01.401Z,5.37
2023-01-13T10:43:31.721Z,4.73
2023-01-13T10:46:07.164Z,6.63
2023-01-13T10:48:41.757Z,5.77
2023-01-13T10:51:21.498Z,5.73
2023-01-13T10:53:59.212Z,5.10
2023-01-13T10:56:31.659Z,8.00
2023-01-13T10:59:18.645Z,7.27
2023-01-13T11:02:01.224Z,5.50
2023-01-13T11:04:36.023Z,7.03
2023-01-13T11:07:07.258Z,5.33
2023-01-13T11:09:37.131Z,7.20
2023-01-13T11:12:05.905Z,5.03
2023-01-13T11:14:41.399Z,6.40
2023-01-13T11:17:28.732Z,6.93
2023-01-13T11:20:06.126Z,4.23
2023-01-13T11:22:40.234Z,5.97
2023-01-13T11:25:19.271Z,5.27
2023-01-13T11:27:55.634Z,6.90
2023-01-13T11:30:34.879Z,7.57
2023-01-13T11:33:28.366Z,6.33
2023-01-13T11:36:09.196Z,8.10
2023-01-13T11:38:50.223Z,5.60
2023-01-13T11:41:44.442Z,5.97
2023-01-13T11:44:21.477Z,7.17
2023-01-13T11:46:51.605Z,5.50
2023-01-13T11:49:27.691Z,6.17
2023-01-13T11:52:02.233Z,6.70
2023-01-13T11:55:07.924Z,7.57
2023-01-13T11:57:55.701Z,5.80
2023-01-13T12:00:37.659Z,6.40
2023-01-13T12:03:28.163Z,5.57
2023-01-13T12:06:24.901Z,5.97
2023-01-13T12:09:29.313Z,5.63
2023-01-13T12:12:23.467Z,6.83
2023-01-13T12:15:32.952Z,8.77
2023-01-13T12:18:37.302Z,5.47
2023-01-13T12:21:20.662Z,5.03
2023-01-13T12:24:00.988Z,6.83
2023-01-13T12:26:34.282Z,6.67
2023-01-13T12:29:08.562Z,7.10
2023-01-13T12:31:41.650Z,8.93
2023-01-13T12:34:30.486Z,5.97
2023-01-13T12:37:13.176Z,5.07
2023-01-13T12:39:52.928Z,5.73
2023-01-13T12:42:46.437Z,6.83
2023-01-13T12:45:29.119Z,6.20
2023-01-13T12:47:59.929Z,4.67
2023-01-13T12:51:01.707Z,5.40
2023-01-13T12:53:38.569Z,4.90
2023-01-13T12:56:42.122Z,6.80
2023-01-13T12:59:37.955Z,5.57
2023-01-13T13:02:36.127Z,6.87
2023-01-13T13:05:51.300Z,7.37
2023-01-13T13:08:25.916Z,8.17
2023-01-13T13:11:39.310Z,8.90
2023-01-13T13:14:11.347Z,6.83
2023-01-13T13:17:01.069Z,6.47
2023-01-13T13:19:47.355Z,6.07
2023-01-13T13:22:45.614Z,6.13
2023-01-13T13:25:27.680Z,5.43
2023-01-13T13:28:22.750Z,7.60
2023-01-13T13:31:20.892Z,8.43
2023-01-13T13:34:26.167Z,7.57
2023-01-13T13:37:33.154Z,5.93
2023-01-13T13:40:29.658Z,6.50
2023-01-13T13:43:17.210Z,5.47
2023-01-13T13:46:10.472Z,5.70
2023-01-13T13:48:39.217Z,5.67
2023-01-13T13:51:29.378Z,5.30
2023-01-13T13:53:59.396Z,5.63
2023-01-13T13:56:41.787Z,7.37
2023-01-13T13:59:12.741Z,5.63
2023-01-13T14:01:45.297Z,7.33
2023-01-13T14:04:19.889Z,8.07
2023-01-13T14:06:57.489Z,9.07
2023-01-13T14:09:29.821Z,6.23
2023-01-13T14:12:02.417Z,6.13
2023-01-13T14:14:31.172Z,6.23
2023-01-13T14:16:59.775Z,5.57
2023-01-13T14:19:35.511Z,5.10
2023-01-13T14:22:05.995Z,6.03
2023-01-13T14:24:35.205Z,7.73
2023-01-13T14:27:17.123Z,8.97
2023-01-13T14:29:46.198Z,8.70
2023-01-13T14:32:20.867Z,7.27
2023-01-13T14:34:49.659Z,5.23
2023-01-13T14:37:34.315Z,4.70
2023-01-13T14:40:02.835Z,5.83
2023-01-13T14:42:35.530Z,7.27
2023-01-13T14:45:04.574Z,5.40
2023-01-13T14:47:34.821Z,7.30
2023-01-13T14:50:08.473Z,8.13
2023-01-13T14:52:47.656Z,5.53
2023-01-13T14:55:30.559Z,9.77
2023-01-13T14:58:29.363Z,6.80
2023-01-13T15:01:31.221Z,5.33
2023-01-13T15:04:17.717Z,5.93
2023-01-13T15:06:50.501Z,8.27
2023-01-13T15:09:26.648Z,4.97
2023-01-13T15:11:56.421Z,13.00
2023-01-13T15:14:31.364Z,5.83
2023-01-13T15:16:59.768Z,5.80
2023-01-13T15:19:28.213Z,8.07
2023-01-13T15:21:56.764Z,5.80
2023-01-13T15:24:25.270Z,9.10
2023-01-13T15:26:53.619Z,7.27
2023-01-13T15:29:24.269Z,6.50
2023-01-13T15:31:54.205Z,6.47
2023-01-13T15:34:22.776Z,10.40
2023-01-13T15:36:51.124Z,7.67
2023-01-13T15:39:19.595Z,5.60
2023-01-13T15:42:05.359Z,7.90
2023-01-13T15:44:51.281Z,7.90
2023-01-13T15:47:25.967Z,7.00
2023-01-13T15:49:55.271Z,6.53
2023-01-13T15:52:26.495Z,6.70
2023-01-13T15:54:55.815Z,8.90
2023-01-13T15:57:26.181Z,7.33
2023-01-13T15:59:58.425Z,6.33
2023-01-13T16:02:29.828Z,8.27
2023-01-13T16:04:58.379Z,7.87
2023-01-13T16:07:27.339Z,8.27
2023-01-13T16:09:55.862Z,8.63
2023-01-13T16:12:24.272Z,6.80
2023-01-13T16:14:52.682Z,6.43
2023-01-13T16:17:23.952Z,6.77
2023-01-13T16:19:53.800Z,7.43
2023-01-13T16:22:22.266Z,7.53
2023-01-13T16:24:50.705Z,10.47
2023-01-13T16:27:21.562Z,6.30
2023-01-13T16:29:51.809Z,6.77
2023-01-13T16:32:21.064Z,7.30
2023-01-13T16:34:49.694Z,7.30
2023-01-13T16:37:24.744Z,6.43
2023-01-13T16:39:54.139Z,9.67
2023-01-13T16:42:22.924Z,8.20
2023-01-13T16:44:52.890Z,7.60
2023-01-13T16:47:22.851Z,9.87
2023-01-13T16:49:51.487Z,12.03
2023-01-13T16:52:21.231Z,10.90
2023-01-13T16:54:49.667Z,8.53
2023-01-13T16:57:18.041Z,9.53
2023-01-13T16:59:46.454Z,8.77
2023-01-13T17:02:19.731Z,8.67
2023-01-13T17:04:49.222Z,12.17
2023-01-13T17:07:19.977Z,8.90
2023-01-13T17:09:48.429Z,10.10
2023-01-13T17:12:16.804Z,8.97
2023-01-13T17:14:45.278Z,9.67
2023-01-13T17:17:23.691Z,8.53
2023-01-13T17:19:52.815Z,10.10
2023-01-13T17:22:23.289Z,8.77
2023-01-13T17:24:51.674Z,10.40
2023-01-13T17:27:21.329Z,8.23
2023-01-13T17:29:49.823Z,10.77
2023-01-13T17:32:19.010Z,8.40
2023-01-13T17:34:47.706Z,8.17
2023-01-13T17:37:16.690Z,7.70
2023-01-13T17:39:48.445Z,7.53
2023-01-13T17:42:17.475Z,8.23
2023-01-13T17:44:46.883Z,8.77
2023-01-13T17:47:15.569Z,7.50
2023-01-13T17:49:43.900Z,9.13
2023-01-13T17:52:12.297Z,8.40
2023-01-13T17:54:43.183Z,7.03
2023-01-13T17:57:13.135Z,7.10
2023-01-13T17:59:42.008Z,8.90
2023-01-13T18:02:13.729Z,7.00
2023-01-13T18:04:42.806Z,8.87
2023-01-13T18:07:11.431Z,7.53
2023-01-13T18:09:39.773Z,11.20
2023-01-13T18:12:08.687Z,7.13
2023-01-13T18:14:38.357Z,13.57
2023-01-13T18:17:06.870Z,9.27
2023-01-13T18:19:53.152Z,11.67
2023-01-13T18:22:38.899Z,10.00
2023-01-13T18:25:29.661Z,9.03
2023-01-13T18:27:58.854Z,10.27
2023-01-13T18:30:30.479Z,13.67
2023-01-13T18:32:59.636Z,12.50
2023-01-13T18:35:29.589Z,11.87
2023-01-13T18:37:58.052Z,13.97
2023-01-13T18:40:26.511Z,15.23
2023-01-13T18:42:54.962Z,13.37
2023-01-13T18:45:26.294Z,13.63
2023-01-13T18:47:59.350Z,11.70
2023-01-13T18:50:28.588Z,13.60
2023-01-13T18:52:57.372Z,14.53
2023-01-13T18:55:29.559Z,13.67
2023-01-13T18:58:00.942Z,13.17
2023-01-13T19:00:36.416Z,14.60
2023-01-13T19:05:40.048Z,15.93
2023-01-13T19:08:08.699Z,15.43
2023-01-13T19:10:40.009Z,15.80
2023-01-13T19:13:08.698Z,13.07
2023-01-13T19:15:38.264Z,14.97
2023-01-13T19:18:10.440Z,13.07
2023-01-13T19:20:40.920Z,15.07
2023-01-13T19:23:09.368Z,15.37
2023-01-13T19:25:38.980Z,15.30
2023-01-13T19:28:07.362Z,15.97
2023-01-13T19:30:35.737Z,12.40
2023-01-13T19:33:04.143Z,15.20
2023-01-13T19:35:33.908Z,11.83
2023-01-13T19:38:02.255Z,14.17
2023-01-13T19:40:30.626Z,16.40
2023-01-13T19:43:16.225Z,16.93
2023-01-13T19:45:45.011Z,13.07
2023-01-13T19:48:16.198Z,13.27
2023-01-13T19:50:48.094Z,15.73
2023-01-13T19:53:18.715Z,15.53
2023-01-13T19:55:48.917Z,15.33
2023-01-13T19:58:18.828Z,16.03
2023-01-13T20:00:48.705Z,12.37
2023-01-13T20:03:18.742Z,14.40
2023-01-13T20:05:48.850Z,15.23
2023-01-13T20:08:17.693Z,11.40
2023-01-13T20:10:47.042Z,18.60
2023-01-13T20:13:16.057Z,11.57
2023-01-13T20:15:45.049Z,8.83
2023-01-13T20:18:13.432Z,9.93
2023-01-13T20:20:41.983Z,6.53
2023-01-13T20:23:12.444Z,8.20
2023-01-13T20:25:43.807Z,7.70
2023-01-13T20:28:12.214Z,9.40
2023-01-13T20:30:41.756Z,6.53
2023-01-13T20:33:10.059Z,7.93
2023-01-13T20:35:38.466Z,8.00
2023-01-13T20:38:08.316Z,6.30
2023-01-13T20:40:38.623Z,5.60
2023-01-13T20:43:06.385Z,7.07
2023-01-13T20:45:35.173Z,5.87
2023-01-13T20:48:03.513Z,6.17
2023-01-13T20:50:31.827Z,6.23
2023-01-13T20:53:00.169Z,6.07
2023-01-13T20:55:28.518Z,7.60
2023-01-13T20:57:58.198Z,5.97
2023-01-13T21:00:28.403Z,6.73
2023-01-13T21:02:56.782Z,8.50
2023-01-13T21:05:25.144Z,6.40
2023-01-13T21:07:53.591Z,6.93
2023-01-13T21:10:21.974Z,8.27
2023-01-13T21:13:07.797Z,7.83
2023-01-13T21:15:37.535Z,6.57
2023-01-13T21:18:23.479Z,6.77
2023-01-13T21:21:11.394Z,6.23
2023-01-13T21:23:41.432Z,7.43
2023-01-13T21:26:10.914Z,6.43
2023-01-13T21:28:39.420Z,7.33
2023-01-13T21:31:10.686Z,7.67
2023-01-13T21:33:39.863Z,9.80
2023-01-13T21:36:09.356Z,7.90
2023-01-13T21:38:37.842Z,6.97
2023-01-13T21:41:09.102Z,6.27
2023-01-13T21:43:56.031Z,8.80
2023-01-13T21:46:43.983Z,6.97
2023-01-13T21:49:12.648Z,8.27
2023-01-13T21:51:41.057Z,6.37
2023-01-13T21:54:09.522Z,6.90
2023-01-13T21:56:38.269Z,6.37
2023-01-13T21:59:06.751Z,7.03
2023-01-13T22:01:36.615Z,7.33
2023-01-13T22:04:24.802Z,7.40
2023-01-13T22:06:53.124Z,6.87
2023-01-13T22:09:21.475Z,6.90
2023-01-13T22:11:49.768Z,7.17
2023-01-13T22:14:18.125Z,8.00
2023-01-13T22:16:49.793Z,9.73
2023-01-13T22:19:18.740Z,7.67
2023-01-13T22:21:47.089Z,9.57
2023-01-13T22:24:15.724Z,7.87
2023-01-13T22:26:44.098Z,6.43
2023-01-13T22:29:12.477Z,7.47
2023-01-13T22:31:40.879Z,7.83
2023-01-13T22:34:13.927Z,6.23
2023-01-13T22:36:42.326Z,7.43
2023-01-13T22:39:12.305Z,8.23
2023-01-13T22:41:40.632Z,6.60
2023-01-13T22:44:08.984Z,8.03
2023-01-13T22:46:37.420Z,7.77
2023-01-13T22:49:05.863Z,7.77
2023-01-13T22:51:35.601Z,6.67
2023-01-13T22:54:03.991Z,5.83
2023-01-13T22:56:32.876Z,8.53
2023-01-13T22:59:03.475Z,6.97
2023-01-13T23:01:34.227Z,4.80
2023-01-13T23:04:03.611Z,7.40
2023-01-13T23:06:35.220Z,5.07
2023-01-13T23:09:03.616Z,6.30
2023-01-13T23:11:32.397Z,6.27
2023-01-13T23:14:03.033Z,6.17
2023-01-13T23:16:34.611Z,6.80
2023-01-13T23:19:03.280Z,7.10
2023-01-13T23:21:36.185Z,6.57
2023-01-13T23:24:05.643Z,7.10
2023-01-13T23:26:35.559Z,8.30
2023-01-13T23:29:07.608Z,7.17
2023-01-13T23:31:36.506Z,6.53
2023-01-13T23:34:05.117Z,6.53
2023-01-13T23:36:37.070Z,6.20
2023-01-13T23:39:05.606Z,6.47
2023-01-13T23:41:34.019Z,8.67
2023-01-13T23:44:02.552Z,6.77
2023-01-13T23:46:32.776Z,7.00
2023-01-13T23:49:02.563Z,7.97
2023-01-13T23:51:31.583Z,9.30
2023-01-13T23:54:01.431Z,7.43
2023-01-13T23:56:32.196Z,8.57
2023-01-13T23:59:00.668Z,11.50
